createdAt,value
2022-10-15T00:01:43.821Z,17.40
2022-10-15T00:04:11.072Z,17.40
2022-10-15T00:06:38.241Z,17.30
2022-10-15T00:09:05.912Z,17.30
2022-10-15T00:11:39.810Z,17.20
2022-10-15T00:14:09.216Z,17.20
2022-10-15T00:16:38.606Z,17.20
2022-10-15T00:19:06.431Z,17.20
2022-10-15T00:21:34.047Z,17.20
2022-10-15T00:24:03.982Z,17.10
2022-10-15T00:26:31.432Z,17.00
2022-10-15T00:29:03.758Z,17.00
2022-10-15T00:31:32.507Z,17.00
2022-10-15T00:34:01.555Z,17.00
2022-10-15T00:36:36.448Z,16.90
2022-10-15T00:39:05.776Z,16.80
2022-10-15T00:41:37.799Z,16.80
2022-10-15T00:44:28.468Z,16.80
2022-10-15T00:47:14.766Z,16.80
2022-10-15T00:50:12.228Z,16.80
2022-10-15T00:52:59.972Z,16.80
2022-10-15T00:55:42.469Z,16.80
2022-10-15T00:58:16.224Z,16.80
2022-10-15T01:00:43.843Z,16.80
2022-10-15T01:03:13.000Z,16.90
2022-10-15T01:05:44.201Z,17.00
2022-10-15T01:08:13.945Z,17.00
2022-10-15T01:10:58.248Z,17.10
2022-10-15T01:13:47.063Z,17.00
2022-10-15T01:16:43.099Z,17.10
2022-10-15T01:19:52.025Z,17.10
2022-10-15T01:22:34.109Z,17.10
2022-10-15T01:25:32.083Z,17.10
2022-10-15T01:28:18.906Z,17.00
2022-10-15T01:30:52.515Z,17.00
2022-10-15T01:33:37.349Z,16.90
2022-10-15T01:36:26.973Z,16.90
2022-10-15T01:39:05.837Z,16.90
2022-10-15T01:41:43.630Z,16.80
2022-10-15T01:44:18.253Z,16.80
2022-10-15T01:46:54.875Z,16.90
2022-10-15T01:49:28.602Z,16.90
2022-10-15T01:51:58.948Z,16.90
2022-10-15T01:54:28.439Z,16.90
2022-10-15T01:56:57.594Z,17.00
2022-10-15T01:59:29.761Z,17.00
2022-10-15T02:01:58.425Z,17.00
2022-10-15T02:04:32.016Z,16.90
2022-10-15T02:07:05.123Z,16.90
2022-10-15T02:09:53.935Z,17.00
2022-10-15T02:12:47.238Z,16.90
2022-10-15T02:15:27.089Z,16.90
2022-10-15T02:18:05.165Z,16.90
2022-10-15T02:20:51.582Z,16.80
2022-10-15T02:23:36.185Z,16.80
2022-10-15T02:26:06.505Z,16.80
2022-10-15T02:28:39.181Z,16.80
2022-10-15T02:31:14.305Z,16.80
2022-10-15T02:33:45.492Z,16.70
2022-10-15T02:36:13.469Z,16.80
2022-10-15T02:38:44.600Z,16.70
2022-10-15T02:41:14.996Z,16.70
2022-10-15T02:43:44.471Z,16.70
2022-10-15T02:46:16.929Z,16.70
2022-10-15T02:48:44.580Z,16.50
2022-10-15T02:51:11.988Z,16.50
2022-10-15T02:53:39.274Z,16.50
2022-10-15T02:56:06.644Z,16.50
2022-10-15T02:58:33.839Z,16.40
2022-10-15T03:01:01.184Z,16.40
2022-10-15T03:03:28.410Z,16.40
2022-10-15T03:05:58.203Z,16.40
2022-10-15T03:08:27.690Z,16.40
2022-10-15T03:11:01.941Z,16.40
2022-10-15T03:13:29.667Z,16.30
2022-10-15T03:15:56.978Z,16.10
2022-10-15T03:18:24.210Z,16.20
2022-10-15T03:20:57.893Z,16.20
2022-10-15T03:23:25.930Z,16.30
2022-10-15T03:25:54.254Z,16.20
2022-10-15T03:28:22.469Z,16.30
2022-10-15T03:30:50.239Z,16.20
2022-10-15T03:33:21.862Z,16.30
2022-10-15T03:35:52.696Z,16.30
2022-10-15T03:38:22.106Z,16.30
2022-10-15T03:40:49.736Z,16.30
2022-10-15T03:43:19.402Z,16.30
2022-10-15T03:45:46.570Z,16.20
2022-10-15T03:48:13.780Z,16.10
2022-10-15T03:50:41.054Z,16.30
2022-10-15T03:53:13.304Z,16.20
2022-10-15T03:55:40.505Z,16.20
2022-10-15T03:58:10.336Z,16.20
2022-10-15T04:00:44.094Z,16.20
2022-10-15T04:03:14.345Z,16.10
2022-10-15T04:05:41.636Z,16.10
2022-10-15T04:08:10.992Z,16.10
2022-10-15T04:10:39.042Z,16.10
2022-10-15T04:13:06.219Z,16.10
2022-10-15T04:15:33.447Z,16.00
2022-10-15T04:18:00.722Z,16.00
2022-10-15T04:20:27.937Z,16.00
2022-10-15T04:22:56.168Z,16.00
2022-10-15T04:25:23.344Z,16.00
2022-10-15T04:27:53.695Z,16.00
2022-10-15T04:30:21.073Z,15.90
2022-10-15T04:32:51.580Z,15.90
2022-10-15T04:35:19.236Z,15.90
2022-10-15T04:37:47.395Z,16.00
2022-10-15T04:40:17.626Z,16.00
2022-10-15T04:42:47.349Z,16.00
2022-10-15T04:45:14.645Z,15.90
2022-10-15T04:47:42.335Z,15.90
2022-10-15T04:50:10.363Z,15.80
2022-10-15T04:52:37.630Z,15.90
2022-10-15T04:55:05.403Z,15.90
2022-10-15T04:57:35.181Z,15.80
2022-10-15T05:00:02.871Z,15.80
2022-10-15T05:02:30.425Z,15.80
2022-10-15T05:05:00.099Z,15.80
2022-10-15T05:07:27.550Z,15.80
2022-10-15T05:09:55.436Z,15.90
2022-10-15T05:12:22.676Z,15.90
2022-10-15T05:14:49.868Z,16.10
2022-10-15T05:17:17.083Z,16.00
2022-10-15T05:19:44.361Z,16.00
2022-10-15T05:22:14.065Z,16.10
2022-10-15T05:24:43.726Z,16.10
2022-10-15T05:27:10.966Z,16.10
2022-10-15T05:29:39.799Z,16.10
2022-10-15T05:32:09.438Z,16.10
2022-10-15T05:34:36.703Z,16.10
2022-10-15T05:37:03.874Z,16.00
2022-10-15T05:39:35.561Z,16.00
2022-10-15T05:42:05.413Z,16.00
2022-10-15T05:44:35.487Z,16.10
2022-10-15T05:47:06.247Z,16.20
2022-10-15T05:49:33.879Z,16.20
2022-10-15T05:52:01.084Z,16.20
2022-10-15T05:54:28.243Z,16.20
2022-10-15T05:56:57.553Z,16.20
2022-10-15T05:59:27.765Z,16.10
2022-10-15T06:01:55.043Z,16.20
2022-10-15T06:04:22.274Z,16.10
2022-10-15T06:06:51.617Z,16.10
2022-10-15T06:09:19.213Z,16.10
2022-10-15T06:11:46.961Z,16.00
2022-10-15T06:14:14.191Z,16.00
2022-10-15T06:16:41.600Z,16.00
2022-10-15T06:19:12.414Z,15.90
2022-10-15T06:21:39.592Z,15.90
2022-10-15T06:24:09.892Z,16.00
2022-10-15T06:26:37.522Z,16.00
2022-10-15T06:29:04.819Z,15.90
2022-10-15T06:31:34.587Z,15.80
2022-10-15T06:34:04.823Z,15.80
2022-10-15T06:36:32.159Z,15.80
2022-10-15T06:38:59.358Z,15.90
2022-10-15T06:41:27.019Z,15.90
2022-10-15T06:43:54.751Z,16.00
2022-10-15T06:46:25.004Z,16.10
2022-10-15T06:48:53.489Z,16.10
2022-10-15T06:51:23.064Z,16.10
2022-10-15T06:53:50.528Z,16.10
2022-10-15T06:56:20.581Z,16.20
2022-10-15T06:58:49.937Z,16.20
2022-10-15T07:01:17.674Z,16.30
2022-10-15T07:03:45.329Z,16.30
2022-10-15T07:06:14.727Z,16.40
2022-10-15T07:08:42.577Z,16.50
2022-10-15T07:11:09.908Z,16.60
2022-10-15T07:13:37.978Z,16.70
2022-10-15T07:16:07.411Z,16.80
2022-10-15T07:18:37.960Z,16.80
2022-10-15T07:21:07.035Z,16.90
2022-10-15T07:23:34.346Z,16.90
2022-10-15T07:26:01.768Z,17.00
2022-10-15T07:28:31.353Z,17.10
2022-10-15T07:31:07.703Z,17.00
2022-10-15T07:33:37.499Z,17.10
2022-10-15T07:36:07.492Z,17.00
2022-10-15T07:38:35.720Z,17.10
2022-10-15T07:41:04.746Z,17.30
2022-10-15T07:43:34.687Z,17.40
2022-10-15T07:46:05.166Z,17.50
2022-10-15T07:48:32.647Z,17.60
2022-10-15T07:51:04.747Z,17.70
2022-10-15T07:53:34.993Z,17.80
2022-10-15T07:56:07.804Z,17.90
2022-10-15T07:58:37.723Z,18.00
2022-10-15T08:01:07.119Z,17.90
2022-10-15T08:03:35.197Z,18.00
2022-10-15T08:06:06.843Z,18.10
2022-10-15T08:08:35.846Z,18.00
2022-10-15T08:11:14.486Z,17.90
2022-10-15T08:13:42.833Z,17.80
2022-10-15T08:16:14.160Z,17.80
2022-10-15T08:18:44.116Z,17.70
2022-10-15T08:21:14.023Z,17.70
2022-10-15T08:23:41.294Z,17.60
2022-10-15T08:26:09.268Z,17.60
2022-10-15T08:28:37.388Z,17.60
2022-10-15T08:31:08.132Z,17.60
2022-10-15T08:33:37.369Z,17.70
2022-10-15T08:36:06.428Z,17.70
2022-10-15T08:38:34.607Z,17.80
2022-10-15T08:41:06.136Z,17.80
2022-10-15T08:43:39.163Z,17.70
2022-10-15T08:46:12.908Z,17.80
2022-10-15T08:48:45.758Z,18.00
2022-10-15T08:51:26.843Z,18.10
2022-10-15T08:54:00.559Z,18.10
2022-10-15T08:56:32.563Z,18.10
2022-10-15T08:59:17.261Z,18.20
2022-10-15T09:02:23.459Z,18.10
2022-10-15T09:05:18.753Z,18.10
2022-10-15T09:07:59.649Z,18.10
2022-10-15T09:10:41.879Z,18.10
2022-10-15T09:13:18.285Z,18.20
2022-10-15T09:15:54.091Z,18.20
2022-10-15T09:18:25.112Z,18.20
2022-10-15T09:20:53.792Z,18.20
2022-10-15T09:23:25.821Z,18.20
2022-10-15T09:26:13.695Z,18.20
2022-10-15T09:28:52.278Z,18.10
2022-10-15T09:31:25.405Z,18.10
2022-10-15T09:34:04.858Z,18.10
2022-10-15T09:36:53.974Z,18.10
2022-10-15T09:39:43.630Z,18.20
2022-10-15T09:42:25.380Z,18.20
2022-10-15T09:44:54.629Z,18.30
2022-10-15T09:47:28.286Z,18.30
2022-10-15T09:49:55.525Z,18.30
2022-10-15T09:52:37.896Z,18.40
2022-10-15T09:55:34.488Z,18.40
2022-10-15T09:58:12.132Z,18.30
2022-10-15T10:01:18.606Z,18.40
2022-10-15T10:03:46.934Z,18.60
2022-10-15T10:06:14.783Z,18.80
2022-10-15T10:08:56.660Z,19.00
2022-10-15T10:11:27.559Z,19.00
2022-10-15T10:14:00.101Z,19.00
2022-10-15T10:16:30.184Z,19.20
2022-10-15T10:19:15.157Z,19.20
2022-10-15T10:21:43.506Z,19.20
2022-10-15T10:24:32.044Z,19.20
2022-10-15T10:29:37.915Z,19.30
2022-10-15T10:32:32.620Z,19.30
2022-10-15T10:35:05.249Z,19.20
2022-10-15T10:37:47.851Z,19.20
2022-10-15T10:40:27.156Z,19.20
2022-10-15T10:43:12.038Z,19.20
2022-10-15T10:45:56.632Z,19.30
2022-10-15T10:48:45.730Z,19.40
2022-10-15T10:51:19.871Z,19.60
2022-10-15T10:53:54.624Z,19.70
2022-10-15T10:56:25.870Z,19.70
2022-10-15T10:59:23.186Z,19.60
2022-10-15T11:01:53.453Z,19.60
2022-10-15T11:04:30.468Z,19.60
2022-10-15T11:07:06.931Z,19.50
2022-10-15T11:10:09.192Z,19.60
2022-10-15T11:12:39.334Z,19.80
2022-10-15T11:15:34.668Z,19.90
2022-10-15T11:18:22.995Z,19.90
2022-10-15T11:21:05.947Z,19.90
2022-10-15T11:24:01.855Z,20.10
2022-10-15T11:26:59.645Z,20.40
2022-10-15T11:30:07.313Z,20.60
2022-10-15T11:33:06.744Z,20.60
2022-10-15T11:35:56.613Z,20.70
2022-10-15T11:38:44.613Z,20.80
2022-10-15T11:41:29.857Z,20.80
2022-10-15T11:44:32.593Z,20.60
2022-10-15T11:47:20.547Z,20.50
2022-10-15T11:49:59.735Z,20.40
2022-10-15T11:52:56.144Z,20.40
2022-10-15T11:55:44.816Z,20.40
2022-10-15T11:58:22.909Z,20.40
2022-10-15T12:00:58.925Z,20.30
2022-10-15T12:03:31.172Z,20.30
2022-10-15T12:06:12.055Z,20.20
2022-10-15T12:08:43.244Z,20.30
2022-10-15T12:11:32.112Z,20.20
2022-10-15T12:14:02.335Z,20.30
2022-10-15T12:16:41.573Z,20.40
2022-10-15T12:19:15.662Z,20.50
2022-10-15T12:21:58.630Z,20.50
2022-10-15T12:24:38.107Z,20.60
2022-10-15T12:27:36.419Z,20.50
2022-10-15T12:30:04.016Z,20.40
2022-10-15T12:32:50.486Z,20.40
2022-10-15T12:35:31.741Z,20.40
2022-10-15T12:38:19.292Z,20.30
2022-10-15T12:40:54.953Z,20.20
2022-10-15T12:43:25.166Z,20.20
2022-10-15T12:45:59.903Z,20.00
2022-10-15T12:48:27.533Z,19.60
2022-10-15T12:51:17.306Z,19.30
2022-10-15T12:53:46.044Z,19.00
2022-10-15T12:56:24.082Z,18.90
2022-10-15T12:58:55.146Z,18.80
2022-10-15T13:01:29.519Z,18.80
2022-10-15T13:03:59.932Z,18.90
2022-10-15T13:06:36.811Z,19.10
2022-10-15T13:09:16.767Z,19.60
2022-10-15T13:11:52.959Z,20.10
2022-10-15T13:14:37.784Z,20.50
2022-10-15T13:17:17.323Z,20.70
2022-10-15T13:20:08.813Z,21.00
2022-10-15T13:22:37.220Z,21.40
2022-10-15T13:25:05.325Z,21.60
2022-10-15T13:27:37.776Z,21.70
2022-10-15T13:30:15.037Z,21.30
2022-10-15T13:32:58.691Z,21.00
2022-10-15T13:35:32.395Z,21.00
2022-10-15T13:38:01.008Z,21.40
2022-10-15T13:40:33.551Z,21.70
2022-10-15T13:43:02.968Z,21.90
2022-10-15T13:45:31.192Z,22.00
2022-10-15T13:47:59.250Z,22.10
2022-10-15T13:50:38.237Z,22.20
2022-10-15T13:53:30.772Z,22.40
2022-10-15T13:56:01.188Z,22.40
2022-10-15T13:58:34.856Z,22.50
2022-10-15T14:01:21.295Z,22.80
2022-10-15T14:04:17.942Z,23.10
2022-10-15T14:06:57.197Z,23.00
2022-10-15T14:09:34.324Z,22.70
2022-10-15T14:12:09.430Z,22.40
2022-10-15T14:14:48.024Z,22.20
2022-10-15T14:17:26.718Z,22.00
2022-10-15T14:20:27.043Z,21.60
2022-10-15T14:22:50.183Z,21.40
2022-10-15T14:25:23.727Z,21.30
2022-10-15T14:27:50.873Z,21.30
2022-10-15T14:30:31.582Z,21.40
2022-10-15T14:33:01.664Z,21.30
2022-10-15T14:35:36.766Z,21.30
2022-10-15T14:38:08.786Z,21.40
2022-10-15T14:40:37.351Z,21.60
2022-10-15T14:43:19.468Z,21.80
2022-10-15T14:45:57.840Z,21.80
2022-10-15T14:48:33.860Z,21.90
2022-10-15T14:51:06.288Z,22.00
2022-10-15T14:53:41.280Z,22.10
2022-10-15T14:56:33.614Z,22.10
2022-10-15T14:59:02.101Z,22.30
2022-10-15T15:01:35.412Z,22.40
2022-10-15T15:04:02.611Z,22.20
2022-10-15T15:06:30.396Z,21.90
2022-10-15T15:08:58.238Z,21.60
2022-10-15T15:11:25.863Z,21.40
2022-10-15T15:13:54.460Z,21.50
2022-10-15T15:16:23.801Z,21.60
2022-10-15T15:18:53.404Z,21.60
2022-10-15T15:21:24.075Z,21.50
2022-10-15T15:23:51.442Z,21.40
2022-10-15T15:26:19.122Z,21.30
2022-10-15T15:28:46.343Z,21.10
2022-10-15T15:31:17.921Z,20.80
2022-10-15T15:33:45.489Z,20.70
2022-10-15T15:36:22.642Z,20.40
2022-10-15T15:38:52.063Z,20.30
2022-10-15T15:41:21.971Z,20.20
2022-10-15T15:43:52.832Z,20.20
2022-10-15T15:46:22.997Z,20.30
2022-10-15T15:48:52.580Z,20.30
2022-10-15T15:51:21.191Z,20.30
2022-10-15T15:53:52.218Z,20.20
2022-10-15T15:56:19.625Z,20.10
2022-10-15T15:58:52.357Z,20.20
2022-10-15T16:01:20.918Z,20.10
2022-10-15T16:03:48.734Z,20.00
2022-10-15T16:06:18.509Z,19.90
2022-10-15T16:08:45.697Z,19.80
2022-10-15T16:11:13.032Z,19.80
2022-10-15T16:13:41.452Z,19.70
2022-10-15T16:16:09.774Z,19.60
2022-10-15T16:18:40.203Z,19.60
2022-10-15T16:21:07.501Z,19.50
2022-10-15T16:23:37.023Z,19.50
2022-10-15T16:26:04.893Z,19.40
2022-10-15T16:28:32.116Z,19.40
2022-10-15T16:31:21.120Z,19.30
2022-10-15T16:33:48.639Z,19.10
2022-10-15T16:36:17.931Z,19.00
2022-10-15T16:38:46.709Z,19.00
2022-10-15T16:41:16.236Z,19.00
2022-10-15T16:43:43.518Z,19.00
2022-10-15T16:46:13.360Z,19.10
2022-10-15T16:48:43.143Z,19.00
2022-10-15T16:51:16.686Z,18.90
2022-10-15T16:53:48.554Z,18.90
2022-10-15T16:56:24.784Z,18.90
2022-10-15T16:58:55.113Z,18.90
2022-10-15T17:01:25.658Z,18.90
2022-10-15T17:03:55.700Z,18.90
2022-10-15T17:06:25.543Z,18.80
2022-10-15T17:08:57.744Z,18.70
2022-10-15T17:11:32.797Z,18.60
2022-10-15T17:14:06.945Z,18.60
2022-10-15T17:16:38.371Z,18.50
2022-10-15T17:19:05.895Z,18.50
2022-10-15T17:21:34.155Z,18.50
2022-10-15T17:24:03.708Z,18.50
2022-10-15T17:26:36.209Z,18.40
2022-10-15T17:29:07.529Z,18.40
2022-10-15T17:31:35.120Z,18.40
2022-10-15T17:34:05.662Z,18.40
2022-10-15T17:36:37.308Z,18.40
2022-10-15T17:39:04.618Z,18.40
2022-10-15T17:41:32.297Z,18.30
2022-10-15T17:43:59.990Z,18.40
2022-10-15T17:46:29.791Z,18.40
2022-10-15T17:48:58.860Z,18.40
2022-10-15T17:51:31.202Z,18.30
2022-10-15T17:54:01.457Z,18.30
2022-10-15T17:56:31.772Z,18.30
2022-10-15T17:59:00.504Z,18.40
2022-10-15T18:04:23.876Z,18.30
2022-10-15T18:06:51.552Z,18.30
2022-10-15T18:09:18.789Z,18.30
2022-10-15T18:11:46.167Z,18.20
2022-10-15T18:16:51.604Z,18.20
2022-10-15T18:19:19.450Z,18.20
2022-10-15T18:21:49.640Z,18.20
2022-10-15T18:24:23.494Z,18.20
2022-10-15T18:26:50.800Z,18.20
2022-10-15T18:29:18.073Z,18.20
2022-10-15T18:31:46.653Z,18.30
2022-10-15T18:34:14.961Z,18.20
2022-10-15T18:36:43.651Z,18.20
2022-10-15T18:39:11.877Z,18.10
2022-10-15T18:41:40.316Z,18.10
2022-10-15T18:44:13.501Z,18.10
2022-10-15T18:46:42.284Z,18.10
2022-10-15T18:49:09.831Z,18.00
2022-10-15T18:51:38.017Z,18.00
2022-10-15T18:54:07.042Z,17.90
2022-10-15T18:56:34.540Z,17.90
2022-10-15T18:59:01.789Z,18.00
2022-10-15T19:01:30.426Z,18.00
2022-10-15T19:04:00.023Z,18.00
2022-10-15T19:06:31.166Z,17.90
2022-10-15T19:08:59.846Z,17.90
2022-10-15T19:11:30.324Z,17.90
2022-10-15T19:13:58.459Z,17.90
2022-10-15T19:16:26.230Z,17.90
2022-10-15T19:18:54.004Z,17.90
2022-10-15T19:21:25.756Z,17.80
2022-10-15T19:23:53.583Z,17.80
2022-10-15T19:26:21.413Z,17.70
2022-10-15T19:28:50.335Z,17.70
2022-10-15T19:31:38.091Z,17.60
2022-10-15T19:34:06.077Z,17.50
2022-10-15T19:36:38.601Z,17.40
2022-10-15T19:39:14.583Z,17.50
2022-10-15T19:41:43.904Z,17.40
2022-10-15T19:44:13.860Z,17.40
2022-10-15T19:46:41.275Z,17.40
2022-10-15T19:49:14.402Z,17.30
2022-10-15T19:51:46.376Z,17.30
2022-10-15T19:54:14.258Z,17.30
2022-10-15T19:56:41.564Z,17.30
2022-10-15T19:59:14.174Z,17.30
2022-10-15T20:01:42.031Z,17.30
2022-10-15T20:04:11.954Z,17.30
2022-10-15T20:06:39.269Z,17.30
2022-10-15T20:09:09.003Z,17.30
2022-10-15T20:11:37.418Z,17.20
2022-10-15T20:14:07.247Z,17.10
2022-10-15T20:16:37.549Z,17.10
2022-10-15T20:19:05.904Z,17.20
2022-10-15T20:21:34.031Z,17.20
2022-10-15T20:24:04.477Z,17.20
2022-10-15T20:26:32.809Z,17.10
2022-10-15T20:29:00.218Z,17.20
2022-10-15T20:31:32.821Z,17.10
2022-10-15T20:34:03.991Z,17.10
2022-10-15T20:36:31.387Z,17.10
2022-10-15T20:39:02.905Z,17.00
2022-10-15T20:41:32.277Z,17.10
2022-10-15T20:44:00.373Z,17.10
2022-10-15T20:46:33.609Z,17.00
2022-10-15T20:49:09.436Z,17.10
2022-10-15T20:51:42.501Z,17.10
2022-10-15T20:54:12.515Z,17.20
2022-10-15T20:56:41.065Z,17.10
2022-10-15T20:59:09.070Z,17.10
2022-10-15T21:01:36.960Z,17.00
2022-10-15T21:04:05.494Z,17.10
2022-10-15T21:06:33.063Z,17.00
2022-10-15T21:09:00.785Z,16.90
2022-10-15T21:11:28.513Z,17.00
2022-10-15T21:13:56.139Z,17.00
2022-10-15T21:16:27.361Z,17.00
2022-10-15T21:18:55.729Z,16.90
2022-10-15T21:21:23.413Z,16.80
2022-10-15T21:23:50.635Z,16.80
2022-10-15T21:26:18.934Z,16.70
2022-10-15T21:28:46.376Z,16.70
2022-10-15T21:31:16.171Z,16.60
2022-10-15T21:33:44.748Z,16.60
2022-10-15T21:36:28.614Z,16.50
2022-10-15T21:38:59.208Z,16.60
2022-10-15T21:41:30.605Z,16.70
2022-10-15T21:43:59.238Z,16.70
2022-10-15T21:46:27.458Z,16.70
2022-10-15T21:48:55.163Z,16.80
2022-10-15T21:51:29.561Z,16.80
2022-10-15T21:53:58.246Z,16.70
2022-10-15T21:56:26.198Z,16.70
2022-10-15T21:58:54.522Z,16.60
2022-10-15T22:01:25.103Z,16.60
2022-10-15T22:03:54.084Z,16.60
2022-10-15T22:06:22.052Z,16.60
2022-10-15T22:08:51.885Z,16.50
2022-10-15T22:14:00.780Z,16.50
2022-10-15T22:16:29.453Z,16.50
2022-10-15T22:18:57.812Z,16.50
2022-10-15T22:21:28.568Z,16.50
2022-10-15T22:24:05.501Z,16.60
2022-10-15T22:26:35.714Z,16.50
2022-10-15T22:29:05.684Z,16.50
2022-10-15T22:31:36.306Z,16.50
2022-10-15T22:34:03.975Z,16.50
2022-10-15T22:36:33.571Z,16.40
2022-10-15T22:39:03.380Z,16.40
2022-10-15T22:41:33.283Z,16.40
2022-10-15T22:44:01.038Z,16.50
2022-10-15T22:46:36.566Z,16.40
2022-10-15T22:49:05.115Z,16.50
2022-10-15T22:51:35.118Z,16.60
2022-10-15T22:54:02.423Z,16.50
2022-10-15T22:56:29.918Z,16.50
2022-10-15T22:58:58.336Z,16.50
2022-10-15T23:01:28.304Z,16.50
2022-10-15T23:04:03.368Z,16.50
2022-10-15T23:06:32.517Z,16.50
2022-10-15T23:09:00.421Z,16.50
2022-10-15T23:11:33.468Z,16.60
2022-10-15T23:14:11.210Z,16.50
2022-10-15T23:16:41.530Z,16.60
2022-10-15T23:19:16.856Z,16.50
2022-10-15T23:21:50.422Z,16.40
2022-10-15T23:24:19.906Z,16.50
2022-10-15T23:26:48.403Z,16.50
2022-10-15T23:29:21.544Z,16.40
2022-10-15T23:31:49.889Z,16.40
2022-10-15T23:34:22.329Z,16.40
2022-10-15T23:36:50.324Z,16.30
2022-10-15T23:39:21.351Z,16.40
2022-10-15T23:41:48.608Z,16.40
2022-10-15T23:44:16.301Z,16.50
2022-10-15T23:46:43.892Z,16.40
2022-10-15T23:49:11.409Z,16.40
2022-10-15T23:51:41.817Z,16.40
2022-10-15T23:54:16.051Z,16.50
2022-10-15T23:56:44.199Z,16.50
2022-10-15T23:59:14.372Z,16.40
